createdAt,value
2019-04-07T00:00:28.426Z,60.73
2019-04-07T00:02:59.259Z,58.98
2019-04-07T00:05:31.014Z,71.40
2019-04-07T00:08:04.889Z,63.10
2019-04-07T00:10:36.004Z,62.45
2019-04-07T00:13:07.294Z,61.10
2019-04-07T00:15:38.958Z,52.30
2019-04-07T00:18:10.363Z,57.80
2019-04-07T00:20:42.027Z,49.30
2019-04-07T00:23:13.133Z,48.33
2019-04-07T00:25:44.415Z,51.37
2019-04-07T00:28:15.195Z,47.83
2019-04-07T00:30:46.183Z,47.85
2019-04-07T00:33:17.211Z,50.70
2019-04-07T00:35:48.009Z,51.58
2019-04-07T00:38:19.318Z,48.68
2019-04-07T00:40:50.666Z,54.65
2019-04-07T00:43:21.712Z,51.73
2019-04-07T00:45:52.607Z,48.92
2019-04-07T00:48:24.391Z,53.33
2019-04-07T00:50:56.161Z,51.97
2019-04-07T00:53:27.032Z,53.95
2019-04-07T00:55:58.294Z,53.75
2019-04-07T00:58:29.162Z,54.40
2019-04-07T01:01:00.159Z,51.15
2019-04-07T01:03:31.216Z,51.65
2019-04-07T01:06:02.266Z,57.03
2019-04-07T01:08:33.534Z,47.88
2019-04-07T01:11:05.568Z,49.65
2019-04-07T01:13:37.374Z,43.02
2019-04-07T01:16:08.347Z,37.10
2019-04-07T01:18:39.615Z,36.13
2019-04-07T01:21:10.474Z,32.58
2019-04-07T01:23:41.500Z,32.20
2019-04-07T01:26:12.775Z,34.43
2019-04-07T01:28:44.045Z,30.32
2019-04-07T01:31:15.248Z,37.30
2019-04-07T01:33:46.867Z,41.88
2019-04-07T01:36:18.327Z,31.82
2019-04-07T01:38:49.391Z,35.25
2019-04-07T01:41:21.987Z,35.20
2019-04-07T01:43:54.698Z,33.33
2019-04-07T01:46:27.352Z,40.67
2019-04-07T01:49:00.116Z,41.97
2019-04-07T01:51:32.283Z,37.45
2019-04-07T01:54:04.554Z,35.63
2019-04-07T01:56:37.199Z,36.55
2019-04-07T01:59:11.255Z,41.68
2019-04-07T02:01:43.906Z,33.48
2019-04-07T02:04:14.895Z,35.38
2019-04-07T02:06:47.503Z,36.42
2019-04-07T02:09:18.313Z,37.10
2019-04-07T02:11:50.506Z,34.50
2019-04-07T02:14:22.416Z,30.55
2019-04-07T02:16:55.267Z,29.42
2019-04-07T02:19:27.797Z,26.90
2019-04-07T02:22:00.351Z,27.83
2019-04-07T02:24:33.404Z,30.87
2019-04-07T02:27:06.078Z,33.65
2019-04-07T02:29:38.798Z,29.20
2019-04-07T02:32:11.363Z,30.60
2019-04-07T02:34:44.086Z,32.17
2019-04-07T02:37:17.384Z,31.95
2019-04-07T02:39:48.653Z,30.90
2019-04-07T02:42:21.498Z,39.05
2019-04-07T02:44:52.531Z,30.70
2019-04-07T02:47:24.640Z,32.33
2019-04-07T02:49:57.104Z,30.15
2019-04-07T02:52:30.505Z,36.97
2019-04-07T02:55:03.017Z,27.95
2019-04-07T02:57:35.890Z,29.67
2019-04-07T03:00:10.062Z,25.68
2019-04-07T03:02:41.298Z,29.02
2019-04-07T03:05:13.798Z,27.48
2019-04-07T03:07:47.248Z,28.05
2019-04-07T03:10:19.667Z,25.62
2019-04-07T03:12:51.703Z,26.12
2019-04-07T03:15:24.909Z,28.98
2019-04-07T03:17:55.789Z,30.37
2019-04-07T03:20:28.139Z,29.87
2019-04-07T03:23:01.925Z,26.90
2019-04-07T03:25:32.994Z,28.55
2019-04-07T03:28:05.459Z,48.05
2019-04-07T03:30:40.304Z,26.10
2019-04-07T03:33:14.204Z,25.60
2019-04-07T03:35:50.490Z,22.77
2019-04-07T03:38:20.522Z,27.25
2019-04-07T03:40:52.654Z,23.95
2019-04-07T03:43:25.517Z,27.80
2019-04-07T03:45:58.009Z,22.62
2019-04-07T03:48:30.461Z,20.35
2019-04-07T03:51:03.187Z,21.75
2019-04-07T03:53:35.693Z,23.83
2019-04-07T03:56:08.109Z,21.15
2019-04-07T03:58:39.685Z,21.70
2019-04-07T04:01:13.580Z,22.15
2019-04-07T04:03:44.686Z,20.90
2019-04-07T04:06:17.558Z,22.32
2019-04-07T04:08:50.662Z,20.55
2019-04-07T04:11:23.658Z,22.73
2019-04-07T04:13:56.636Z,20.75
2019-04-07T04:16:28.553Z,23.87
2019-04-07T04:19:00.056Z,22.85
2019-04-07T04:21:30.984Z,22.52
2019-04-07T04:24:02.195Z,21.00
2019-04-07T04:26:33.261Z,22.02
2019-04-07T04:29:04.472Z,21.48
2019-04-07T04:31:35.887Z,24.80
2019-04-07T04:34:07.190Z,23.90
2019-04-07T04:36:38.102Z,23.02
2019-04-07T04:39:10.078Z,23.27
2019-04-07T04:41:41.169Z,23.98
2019-04-07T04:44:12.271Z,24.67
2019-04-07T04:46:43.315Z,21.33
2019-04-07T04:49:14.948Z,23.57
2019-04-07T04:51:46.084Z,24.15
2019-04-07T04:54:17.212Z,25.50
2019-04-07T04:56:48.746Z,26.02
2019-04-07T04:59:20.354Z,24.05
2019-04-07T05:01:51.512Z,23.35
2019-04-07T05:04:22.971Z,21.62
2019-04-07T05:06:54.240Z,26.62
2019-04-07T05:09:25.744Z,22.75
2019-04-07T05:11:57.696Z,22.32
2019-04-07T05:14:28.458Z,24.02
2019-04-07T05:16:59.513Z,20.27
2019-04-07T05:19:30.494Z,20.72
2019-04-07T05:22:02.428Z,20.77
2019-04-07T05:24:33.638Z,30.70
2019-04-07T05:27:04.737Z,22.17
2019-04-07T05:29:36.536Z,22.42
2019-04-07T05:32:08.039Z,22.07
2019-04-07T05:34:39.089Z,22.77
2019-04-07T05:37:10.714Z,20.40
2019-04-07T05:39:42.527Z,18.27
2019-04-07T05:42:13.608Z,21.75
2019-04-07T05:44:44.551Z,19.75
2019-04-07T05:47:15.601Z,22.05
2019-04-07T05:49:46.557Z,20.50
2019-04-07T05:52:18.092Z,23.27
2019-04-07T05:54:49.957Z,23.22
2019-04-07T05:57:21.860Z,24.95
2019-04-07T05:59:52.909Z,23.40
2019-04-07T06:02:24.423Z,19.90
2019-04-07T06:04:57.154Z,27.85
2019-04-07T06:07:30.725Z,22.20
2019-04-07T06:10:00.973Z,22.57
2019-04-07T06:12:31.695Z,21.12
2019-04-07T06:15:02.689Z,20.77
2019-04-07T06:17:34.622Z,20.97
2019-04-07T06:20:12.051Z,20.70
2019-04-07T06:22:40.430Z,20.25
2019-04-07T06:25:13.097Z,20.75
2019-04-07T06:27:45.317Z,21.00
2019-04-07T06:30:17.642Z,21.93
2019-04-07T06:32:48.509Z,20.57
2019-04-07T06:35:19.364Z,20.90
2019-04-07T06:37:50.833Z,21.20
2019-04-07T06:40:22.293Z,22.45
2019-04-07T06:42:54.364Z,21.00
2019-04-07T06:45:26.691Z,20.82
2019-04-07T06:48:01.233Z,20.97
2019-04-07T06:50:31.375Z,19.20
2019-04-07T06:53:04.370Z,21.25
2019-04-07T06:58:08.890Z,19.48
2019-04-07T07:00:39.771Z,17.98
2019-04-07T07:03:12.838Z,18.52
2019-04-07T07:05:46.172Z,21.00
2019-04-07T07:08:21.105Z,20.02
2019-04-07T07:10:53.085Z,21.20
2019-04-07T07:15:58.438Z,20.17
2019-04-07T07:21:03.154Z,20.35
2019-04-07T07:23:35.136Z,23.50
2019-04-07T07:26:07.085Z,19.33
2019-04-07T07:28:38.076Z,18.93
2019-04-07T07:31:08.870Z,21.00
2019-04-07T07:33:41.779Z,21.15
2019-04-07T07:36:12.393Z,21.17
2019-04-07T07:38:55.747Z,22.37
2019-04-07T07:41:19.757Z,20.10
2019-04-07T07:43:48.272Z,22.17
2019-04-07T07:46:22.401Z,21.07
2019-04-07T07:48:52.193Z,22.42
2019-04-07T07:51:24.726Z,23.50
2019-04-07T07:53:58.577Z,18.98
2019-04-07T07:56:27.953Z,22.30
2019-04-07T07:59:00.863Z,20.00
2019-04-07T08:01:32.203Z,19.95
2019-04-07T08:04:03.748Z,20.40
2019-04-07T08:06:38.285Z,20.88
2019-04-07T08:09:13.734Z,18.90
2019-04-07T08:11:42.363Z,20.10
2019-04-07T08:14:16.618Z,20.00
2019-04-07T08:16:46.217Z,22.10
2019-04-07T08:19:17.907Z,20.32
2019-04-07T08:21:51.227Z,20.75
2019-04-07T08:24:21.831Z,21.20
2019-04-07T08:26:56.254Z,21.45
2019-04-07T08:29:25.637Z,20.90
2019-04-07T08:31:57.574Z,19.80
2019-04-07T08:34:30.533Z,21.12
2019-04-07T08:37:00.966Z,20.72
2019-04-07T08:39:35.005Z,22.22
2019-04-07T08:42:09.587Z,22.17
2019-04-07T08:44:36.994Z,21.82
2019-04-07T08:47:11.719Z,21.02
2019-04-07T08:49:41.592Z,20.68
2019-04-07T08:52:12.857Z,20.72
2019-04-07T08:54:44.357Z,21.57
2019-04-07T08:57:16.322Z,23.55
2019-04-07T08:59:48.064Z,20.50
2019-04-07T09:02:19.973Z,20.20
2019-04-07T09:04:52.298Z,21.52
2019-04-07T09:07:24.571Z,21.55
2019-04-07T09:09:55.613Z,23.18
2019-04-07T09:12:28.917Z,22.22
2019-04-07T09:14:59.539Z,22.50
2019-04-07T09:17:39.906Z,22.93
2019-04-07T09:20:10.370Z,23.73
2019-04-07T09:22:42.022Z,21.77
2019-04-07T09:27:46.085Z,24.55
2019-04-07T09:30:19.663Z,23.70
2019-04-07T09:32:52.070Z,22.15
2019-04-07T09:35:26.487Z,22.27
2019-04-07T09:37:58.757Z,21.33
2019-04-07T09:40:31.811Z,20.57
2019-04-07T09:45:34.503Z,23.62
2019-04-07T09:48:07.554Z,22.10
2019-04-07T09:53:11.316Z,25.15
2019-04-07T09:55:45.110Z,23.05
2019-04-07T09:58:18.223Z,21.55
2019-04-07T10:00:53.326Z,20.27
2019-04-07T10:03:23.808Z,19.07
2019-04-07T10:05:55.964Z,20.10
2019-04-07T10:08:28.578Z,22.85
2019-04-07T10:11:00.998Z,26.25
2019-04-07T10:13:34.074Z,28.25
2019-04-07T10:16:09.007Z,29.00
2019-04-07T10:18:40.207Z,24.20
2019-04-07T10:21:12.501Z,34.57
2019-04-07T10:23:44.863Z,25.93
2019-04-07T10:29:12.130Z,36.68
2019-04-07T10:31:45.167Z,33.50
2019-04-07T10:36:48.871Z,32.73
2019-04-07T10:39:21.271Z,42.30
2019-04-07T10:41:53.306Z,38.92
2019-04-07T10:44:26.042Z,40.08
2019-04-07T10:46:58.212Z,44.23
2019-04-07T10:49:30.449Z,39.67
2019-04-07T10:52:02.934Z,37.00
2019-04-07T10:54:35.177Z,28.42
2019-04-07T10:57:07.447Z,27.93
2019-04-07T10:59:38.994Z,28.00
2019-04-07T11:02:11.887Z,26.82
2019-04-07T11:04:45.045Z,24.98
2019-04-07T11:09:49.890Z,23.98
2019-04-07T11:12:23.998Z,24.73
2019-04-07T11:14:57.106Z,23.22
2019-04-07T11:20:01.444Z,23.92
2019-04-07T11:25:03.976Z,24.43
2019-04-07T11:27:35.397Z,21.82
2019-04-07T11:30:09.107Z,23.45
2019-04-07T11:32:41.948Z,23.12
2019-04-07T11:35:15.479Z,22.93
2019-04-07T11:37:48.475Z,24.75
2019-04-07T11:40:20.907Z,28.27
2019-04-07T11:42:53.463Z,30.52
2019-04-07T11:45:25.729Z,26.03
2019-04-07T11:47:58.098Z,28.05
2019-04-07T11:50:30.991Z,25.30
2019-04-07T11:53:01.838Z,26.70
2019-04-07T11:55:33.997Z,29.10
2019-04-07T11:58:13.532Z,27.85
2019-04-07T12:00:41.522Z,31.30
2019-04-07T12:03:12.211Z,33.08
2019-04-07T12:05:44.390Z,47.62
2019-04-07T12:08:16.473Z,31.40
2019-04-07T12:10:58.570Z,42.17
2019-04-07T12:13:22.235Z,28.65
2019-04-07T12:15:56.066Z,31.85
2019-04-07T12:18:28.370Z,24.30
2019-04-07T12:21:03.451Z,27.90
2019-04-07T12:23:34.193Z,28.87
2019-04-07T12:26:06.347Z,37.45
2019-04-07T12:28:38.674Z,40.08
2019-04-07T12:31:10.294Z,32.25
2019-04-07T12:33:40.870Z,31.37
2019-04-07T12:36:13.987Z,33.70
2019-04-07T12:38:46.678Z,33.25
2019-04-07T12:41:22.002Z,42.13
2019-04-07T12:43:52.710Z,44.75
2019-04-07T12:46:24.873Z,52.60
2019-04-07T12:48:57.525Z,43.83
2019-04-07T12:51:28.864Z,51.68
2019-04-07T12:54:03.118Z,36.98
2019-04-07T12:56:36.119Z,39.00
2019-04-07T12:59:08.860Z,25.55
2019-04-07T13:01:43.929Z,29.10
2019-04-07T13:04:15.483Z,26.65
2019-04-07T13:06:47.983Z,20.48
2019-04-07T13:09:19.418Z,21.97
2019-04-07T13:11:52.734Z,21.60
2019-04-07T13:17:00.128Z,23.77
2019-04-07T13:19:30.183Z,20.95
2019-04-07T13:22:03.110Z,22.25
2019-04-07T13:24:38.963Z,17.62
2019-04-07T13:27:10.237Z,11.75
2019-04-07T13:29:43.343Z,9.05
2019-04-07T13:32:16.059Z,15.05
2019-04-07T13:34:49.821Z,12.70
2019-04-07T13:39:53.393Z,13.00
2019-04-07T13:42:26.703Z,13.73
2019-04-07T13:45:02.487Z,10.88
2019-04-07T13:47:34.064Z,26.20
2019-04-07T13:50:07.563Z,17.42
2019-04-07T13:52:41.509Z,14.20
2019-04-07T13:55:14.210Z,13.05
2019-04-07T13:57:46.483Z,13.00
2019-04-07T14:00:20.134Z,14.98
2019-04-07T14:02:53.330Z,15.08
2019-04-07T14:05:26.311Z,17.95
2019-04-07T14:08:00.023Z,14.40
2019-04-07T14:10:35.630Z,15.05
2019-04-07T14:13:06.277Z,14.73
2019-04-07T14:15:38.749Z,18.50
2019-04-07T14:18:10.077Z,17.27
2019-04-07T14:20:42.469Z,15.80
2019-04-07T14:23:13.360Z,18.15
2019-04-07T14:25:47.315Z,14.40
2019-04-07T14:28:17.909Z,16.00
2019-04-07T14:30:50.986Z,21.95
2019-04-07T14:33:23.968Z,15.90
2019-04-07T14:35:56.463Z,16.32
2019-04-07T14:38:29.033Z,16.70
2019-04-07T14:41:01.555Z,15.23
2019-04-07T14:43:34.440Z,16.48
2019-04-07T14:46:07.568Z,17.00
2019-04-07T14:48:40.206Z,16.05
2019-04-07T14:51:13.227Z,16.93
2019-04-07T14:53:46.186Z,18.60
2019-04-07T14:56:18.677Z,17.80
2019-04-07T14:58:53.374Z,16.52
2019-04-07T15:01:25.662Z,13.55
2019-04-07T15:03:56.469Z,12.98
2019-04-07T15:06:31.100Z,13.25
2019-04-07T15:09:03.790Z,12.93
2019-04-07T15:11:35.761Z,14.13
2019-04-07T15:14:06.747Z,13.25
2019-04-07T15:16:38.257Z,14.75
2019-04-07T15:19:09.634Z,15.58
2019-04-07T15:21:41.197Z,15.03
2019-04-07T15:24:12.190Z,17.07
2019-04-07T15:26:46.972Z,15.85
2019-04-07T15:29:15.981Z,17.27
2019-04-07T15:31:50.652Z,18.85
2019-04-07T15:34:19.858Z,16.70
2019-04-07T15:36:51.220Z,21.55
2019-04-07T15:39:22.622Z,18.00
2019-04-07T15:41:53.645Z,16.50
2019-04-07T15:44:24.900Z,17.77
2019-04-07T15:46:56.479Z,17.62
2019-04-07T15:49:28.308Z,17.87
2019-04-07T15:52:01.254Z,21.52
2019-04-07T15:54:32.383Z,19.30
2019-04-07T15:57:03.652Z,16.50
2019-04-07T15:59:35.853Z,17.10
2019-04-07T16:02:10.071Z,22.32
2019-04-07T16:04:39.668Z,17.82
2019-04-07T16:07:11.995Z,17.15
2019-04-07T16:09:51.090Z,16.95
2019-04-07T16:12:16.515Z,20.25
2019-04-07T16:14:48.237Z,17.65
2019-04-07T16:17:21.035Z,18.52
2019-04-07T16:19:54.060Z,19.13
2019-04-07T16:22:24.590Z,20.05
2019-04-07T16:24:56.960Z,17.52
2019-04-07T16:27:28.258Z,21.33
2019-04-07T16:29:59.316Z,18.42
2019-04-07T16:32:30.895Z,20.70
2019-04-07T16:35:01.976Z,18.05
2019-04-07T16:37:33.564Z,20.52
2019-04-07T16:40:08.705Z,19.10
2019-04-07T16:42:37.146Z,18.85
2019-04-07T16:45:12.489Z,19.82
2019-04-07T16:47:42.206Z,26.93
2019-04-07T16:50:17.893Z,25.10
2019-04-07T16:52:46.952Z,23.18
2019-04-07T16:55:21.109Z,24.40
2019-04-07T16:57:52.619Z,25.37
2019-04-07T17:00:23.756Z,22.07
2019-04-07T17:02:54.834Z,25.02
2019-04-07T17:05:26.308Z,23.50
2019-04-07T17:07:59.471Z,23.73
2019-04-07T17:10:33.878Z,22.95
2019-04-07T17:13:13.897Z,27.10
2019-04-07T17:15:39.438Z,23.85
2019-04-07T17:18:10.355Z,24.90
2019-04-07T17:20:41.246Z,25.27
2019-04-07T17:23:12.207Z,24.12
2019-04-07T17:25:43.982Z,30.68
2019-04-07T17:28:16.276Z,26.25
2019-04-07T17:30:47.630Z,23.83
2019-04-07T17:33:20.891Z,24.77
2019-04-07T17:35:52.267Z,31.30
2019-04-07T17:38:25.821Z,28.32
2019-04-07T17:43:36.041Z,28.00
2019-04-07T17:48:40.413Z,25.05
2019-04-07T17:51:09.717Z,24.80
2019-04-07T17:53:45.381Z,26.25
2019-04-07T17:56:18.905Z,25.25
2019-04-07T17:58:49.754Z,25.52
2019-04-07T18:01:24.725Z,28.67
2019-04-07T18:06:31.110Z,28.50
2019-04-07T18:11:32.785Z,24.72
2019-04-07T18:14:05.730Z,23.22
2019-04-07T18:16:37.988Z,25.60
2019-04-07T18:19:10.895Z,28.42
2019-04-07T18:21:47.822Z,29.12
2019-04-07T18:26:48.140Z,27.07
2019-04-07T18:29:23.151Z,29.30
2019-04-07T18:31:57.469Z,62.95
2019-04-07T18:34:28.827Z,34.00
2019-04-07T18:37:02.170Z,29.48
2019-04-07T18:39:35.166Z,26.20
2019-04-07T18:42:10.635Z,25.65
2019-04-07T18:44:41.368Z,68.90
2019-04-07T18:47:15.258Z,27.02
2019-04-07T18:49:48.403Z,27.45
2019-04-07T18:52:22.671Z,26.40
2019-04-07T18:57:25.500Z,26.33
2019-04-07T19:00:01.104Z,29.25
2019-04-07T19:02:31.911Z,25.00
2019-04-07T19:05:04.984Z,25.77
2019-04-07T19:07:37.900Z,30.68
2019-04-07T19:10:17.618Z,29.77
2019-04-07T19:12:47.707Z,26.30
2019-04-07T19:15:18.051Z,28.27
2019-04-07T19:17:50.412Z,27.32
2019-04-07T19:20:22.906Z,31.25
2019-04-07T19:22:56.026Z,28.85
2019-04-07T19:25:29.148Z,25.88
2019-04-07T19:28:03.709Z,25.27
2019-04-07T19:33:06.758Z,26.65
2019-04-07T19:35:40.916Z,24.23
2019-04-07T19:40:47.104Z,25.43
2019-04-07T19:43:18.135Z,28.42
2019-04-07T19:45:50.192Z,24.40
2019-04-07T19:48:20.991Z,26.82
2019-04-07T19:50:55.020Z,29.12
2019-04-07T19:55:59.507Z,25.77
2019-04-07T19:58:36.168Z,25.43
2019-04-07T20:01:06.749Z,24.72
2019-04-07T20:03:40.311Z,24.57
2019-04-07T20:06:12.951Z,24.40
2019-04-07T20:08:45.864Z,23.90
2019-04-07T20:11:18.965Z,23.83
2019-04-07T20:16:21.996Z,24.32
2019-04-07T20:18:57.895Z,28.67
2019-04-07T20:21:35.916Z,25.55
2019-04-07T20:24:03.649Z,23.18
2019-04-07T20:29:04.979Z,28.05
2019-04-07T20:31:36.388Z,27.15
2019-04-07T20:34:09.721Z,25.50
2019-04-07T20:36:42.246Z,23.77
2019-04-07T20:39:15.052Z,24.00
2019-04-07T20:41:48.027Z,23.80
2019-04-07T20:44:21.043Z,24.60
2019-04-07T20:46:57.385Z,20.97
2019-04-07T20:49:27.769Z,21.02
2019-04-07T20:51:59.177Z,20.35
2019-04-07T20:54:33.870Z,20.02
2019-04-07T20:57:03.757Z,18.55
2019-04-07T20:59:46.973Z,20.95
2019-04-07T21:02:11.207Z,25.65
2019-04-07T21:04:43.404Z,20.30
2019-04-07T21:07:16.405Z,21.30
2019-04-07T21:09:48.933Z,27.58
2019-04-07T21:12:19.640Z,21.10
2019-04-07T21:14:51.957Z,20.08
2019-04-07T21:17:24.232Z,20.48
2019-04-07T21:19:56.368Z,19.70
2019-04-07T21:22:27.162Z,20.57
2019-04-07T21:25:00.634Z,19.92
2019-04-07T21:30:06.569Z,18.20
2019-04-07T21:32:38.791Z,20.17
2019-04-07T21:35:11.316Z,21.42
2019-04-07T21:37:48.126Z,20.60
2019-04-07T21:40:19.791Z,23.22
2019-04-07T21:42:54.222Z,22.07
2019-04-07T21:45:36.857Z,19.92
2019-04-07T21:48:00.236Z,21.80
2019-04-07T21:50:33.213Z,20.68
2019-04-07T21:53:05.462Z,21.10
2019-04-07T21:55:40.162Z,21.45
2019-04-07T21:58:12.383Z,18.23
2019-04-07T22:00:45.407Z,17.05
2019-04-07T22:03:18.406Z,20.02
2019-04-07T22:05:50.943Z,20.17
2019-04-07T22:08:23.325Z,19.10
2019-04-07T22:10:55.293Z,17.67
2019-04-07T22:13:26.374Z,19.48
2019-04-07T22:16:01.500Z,24.40
2019-04-07T22:18:29.431Z,19.32
2019-04-07T22:21:01.440Z,18.65
2019-04-07T22:23:32.650Z,18.92
2019-04-07T22:26:04.551Z,20.70
2019-04-07T22:28:35.662Z,20.10
2019-04-07T22:31:10.928Z,20.45
2019-04-07T22:33:39.070Z,22.73
2019-04-07T22:36:13.925Z,18.07
2019-04-07T22:38:43.232Z,20.27
2019-04-07T22:41:14.426Z,21.23
2019-04-07T22:43:47.840Z,17.85
2019-04-07T22:46:21.958Z,22.48
2019-04-07T22:48:50.211Z,19.77
2019-04-07T22:51:21.009Z,20.97
2019-04-07T22:53:55.344Z,16.93
2019-04-07T22:56:24.417Z,18.50
2019-04-07T22:58:56.187Z,17.00
2019-04-07T23:01:27.193Z,17.90
2019-04-07T23:03:58.482Z,23.65
2019-04-07T23:06:29.309Z,17.45
2019-04-07T23:09:00.272Z,17.27
2019-04-07T23:11:32.031Z,17.32
2019-04-07T23:14:03.091Z,17.57
2019-04-07T23:16:34.080Z,18.10
2019-04-07T23:19:05.287Z,19.15
2019-04-07T23:21:36.092Z,16.45
2019-04-07T23:24:07.207Z,21.37
2019-04-07T23:26:38.418Z,17.98
2019-04-07T23:29:10.032Z,18.00
2019-04-07T23:31:41.168Z,21.93
2019-04-07T23:34:12.098Z,21.62
2019-04-07T23:36:43.607Z,20.70
2019-04-07T23:39:15.182Z,24.25
2019-04-07T23:41:46.159Z,22.30
2019-04-07T23:44:17.217Z,21.87
2019-04-07T23:46:48.812Z,22.65
2019-04-07T23:49:20.357Z,20.27
2019-04-07T23:51:51.463Z,22.73
2019-04-07T23:54:22.586Z,23.50
2019-04-07T23:56:54.134Z,21.75
2019-04-07T23:59:25.386Z,26.80
